createdAt,value
2022-12-11T08:57:05.798Z,94191.00
2022-12-11T08:58:05.673Z,94189.00
2022-12-11T08:59:05.593Z,94189.00
2022-12-11T09:00:05.472Z,94191.00
2022-12-11T09:01:05.483Z,94193.00
2022-12-11T09:02:05.238Z,94193.00
2022-12-11T09:03:08.478Z,94195.00
2022-12-11T09:04:06.011Z,94197.00
2022-12-11T09:05:04.855Z,94205.00
2022-12-11T09:06:04.780Z,94207.00
2022-12-11T09:07:05.206Z,94211.00
2022-12-11T09:08:05.408Z,94213.00
2022-12-11T09:09:04.837Z,94211.00
2022-12-11T09:10:04.534Z,94213.00
2022-12-11T09:11:04.469Z,94211.00
2022-12-11T09:12:04.889Z,94213.00
2022-12-11T09:13:03.762Z,94209.00
2022-12-11T09:14:07.534Z,94207.00
2022-12-11T09:15:03.517Z,94207.00
2022-12-11T09:16:03.549Z,94203.00
2022-12-11T09:17:03.244Z,94199.00
2022-12-11T09:18:03.113Z,94197.00
2022-12-11T09:19:02.955Z,94199.00
2022-12-11T09:20:02.870Z,94197.00
2022-12-11T09:21:02.711Z,94197.00
2022-12-11T09:22:02.565Z,94201.00
2022-12-11T09:23:02.428Z,94201.00
2022-12-11T09:24:02.435Z,94197.00
2022-12-11T09:25:02.143Z,94197.00
2022-12-11T09:26:02.034Z,94199.00
2022-12-11T09:27:01.886Z,94201.00
2022-12-11T09:28:01.793Z,94201.00
2022-12-11T09:29:01.611Z,94199.00
2022-12-11T09:30:01.503Z,94199.00
2022-12-11T09:31:01.404Z,94197.00
2022-12-11T09:32:01.276Z,94195.00
2022-12-11T09:33:01.238Z,94195.00
2022-12-11T09:34:01.060Z,94199.00
2022-12-11T09:35:00.832Z,94199.00
2022-12-11T09:36:00.730Z,94197.00
2022-12-11T09:37:00.597Z,94195.00
2022-12-11T09:38:00.477Z,94199.00
2022-12-11T09:39:00.314Z,94195.00
2022-12-11T09:40:04.146Z,94191.00
2022-12-11T09:41:01.098Z,94195.00
2022-12-11T09:41:59.954Z,94187.00
2022-12-11T09:42:59.932Z,94187.00
2022-12-11T09:43:59.662Z,94191.00
2022-12-11T09:44:59.585Z,94189.00
2022-12-11T09:45:59.497Z,94193.00
2022-12-11T09:46:59.287Z,94191.00
2022-12-11T09:47:59.149Z,94193.00
2022-12-11T09:48:59.045Z,94191.00
2022-12-11T09:49:58.900Z,94187.00
2022-12-11T09:50:58.807Z,94187.00
2022-12-11T09:51:59.298Z,94189.00
2022-12-11T09:52:58.548Z,94185.00
2022-12-11T09:53:58.401Z,94183.00
2022-12-11T09:54:58.256Z,94181.00
2022-12-11T09:55:58.180Z,94181.00
2022-12-11T09:56:58.068Z,94179.00
2022-12-11T09:57:57.870Z,94179.00
2022-12-11T09:58:57.780Z,94173.00
2022-12-11T10:00:04.252Z,94173.00
2022-12-11T10:00:58.522Z,94171.00
2022-12-11T10:01:57.392Z,94168.00
2022-12-11T10:02:57.416Z,94166.00
2022-12-11T10:03:57.113Z,94166.00
2022-12-11T10:04:57.011Z,94162.00
2022-12-11T10:06:01.132Z,94164.00
2022-12-11T10:06:57.775Z,94164.00
2022-12-11T10:07:56.702Z,94164.00
2022-12-11T10:08:56.501Z,94162.00
2022-12-11T10:09:56.359Z,94160.00
2022-12-11T10:10:56.247Z,94158.00
2022-12-11T10:11:57.043Z,94160.00
2022-12-11T10:12:55.979Z,94162.00
2022-12-11T10:13:55.840Z,94166.00
2022-12-11T10:14:55.798Z,94160.00
2022-12-11T10:15:55.648Z,94160.00
2022-12-11T10:16:55.485Z,94162.00
2022-12-11T10:17:57.547Z,94158.00
2022-12-11T10:18:56.231Z,94156.00
2022-12-11T10:19:55.099Z,94158.00
2022-12-11T10:20:54.960Z,94158.00
2022-12-11T10:21:54.844Z,94156.00
2022-12-11T10:22:54.729Z,94156.00
2022-12-11T10:23:54.614Z,94154.00
2022-12-11T10:25:11.584Z,94154.00
2022-12-11T10:25:55.376Z,94156.00
2022-12-11T10:26:54.199Z,94154.00
2022-12-11T10:27:54.111Z,94156.00
2022-12-11T10:28:53.951Z,94154.00
2022-12-11T10:29:53.874Z,94158.00
2022-12-11T10:30:53.820Z,94158.00
2022-12-11T10:31:53.642Z,94158.00
2022-12-11T10:32:53.477Z,94158.00
2022-12-11T10:33:53.399Z,94154.00
2022-12-11T10:34:53.215Z,94158.00
2022-12-11T10:35:53.128Z,94158.00
2022-12-11T10:36:58.793Z,94156.00
2022-12-11T10:37:53.910Z,94154.00
2022-12-11T10:38:52.744Z,94154.00
2022-12-11T10:39:52.632Z,94150.00
2022-12-11T10:40:52.509Z,94152.00
2022-12-11T10:41:52.408Z,94152.00
2022-12-11T10:42:52.250Z,94150.00
2022-12-11T10:43:52.239Z,94146.00
2022-12-11T10:44:52.062Z,94144.00
2022-12-11T10:45:51.931Z,94144.00
2022-12-11T10:46:51.843Z,94142.00
2022-12-11T10:47:51.879Z,94140.00
2022-12-11T10:48:51.554Z,94142.00
2022-12-11T10:49:51.446Z,94142.00
2022-12-11T10:50:51.298Z,94140.00
2022-12-11T10:51:51.215Z,94142.00
2022-12-11T10:52:51.058Z,94136.00
2022-12-11T10:53:51.016Z,94134.00
2022-12-11T10:54:50.862Z,94134.00
2022-12-11T10:55:50.727Z,94134.00
2022-12-11T10:56:50.584Z,94130.00
2022-12-11T10:57:50.481Z,94128.00
2022-12-11T10:58:50.302Z,94126.00
2022-12-11T10:59:50.274Z,94123.00
2022-12-11T11:00:50.115Z,94123.00
2022-12-11T11:01:50.039Z,94121.00
2022-12-11T11:02:50.032Z,94119.00
2022-12-11T11:03:49.724Z,94117.00
2022-12-11T11:04:49.588Z,94119.00
2022-12-11T11:05:49.784Z,94109.00
2022-12-11T11:06:49.314Z,94117.00
2022-12-11T11:07:49.404Z,94109.00
2022-12-11T11:08:49.084Z,94109.00
2022-12-11T11:09:48.971Z,94105.00
2022-12-11T11:10:48.849Z,94105.00
2022-12-11T11:11:48.739Z,94103.00
2022-12-11T11:12:48.586Z,94103.00
2022-12-11T11:13:48.502Z,94099.00
2022-12-11T11:14:48.315Z,94101.00
2022-12-11T11:15:48.317Z,94101.00
2022-12-11T11:16:48.070Z,94101.00
2022-12-11T11:17:54.657Z,94103.00
2022-12-11T11:18:48.833Z,94099.00
2022-12-11T11:19:47.878Z,94101.00
2022-12-11T11:20:47.599Z,94097.00
2022-12-11T11:21:47.469Z,94097.00
2022-12-11T11:22:47.337Z,94093.00
2022-12-11T11:23:50.611Z,94093.00
2022-12-11T11:24:48.092Z,94093.00
2022-12-11T11:25:46.942Z,94089.00
2022-12-11T11:27:12.124Z,94085.00
2022-12-11T11:27:47.703Z,94087.00
2022-12-11T11:28:46.523Z,94089.00
2022-12-11T11:29:51.544Z,94087.00
2022-12-11T11:30:47.427Z,94091.00
2022-12-11T11:31:46.175Z,94087.00
2022-12-11T11:32:46.034Z,94085.00
2022-12-11T11:33:45.925Z,94083.00
2022-12-11T11:34:45.795Z,94083.00
2022-12-11T11:35:46.001Z,94085.00
2022-12-11T11:36:45.524Z,94083.00
2022-12-11T11:37:45.387Z,94079.00
2022-12-11T11:38:45.289Z,94076.00
2022-12-11T11:39:45.146Z,94076.00
2022-12-11T11:40:45.032Z,94076.00
2022-12-11T11:41:44.852Z,94072.00
2022-12-11T11:42:44.778Z,94074.00
2022-12-11T11:43:44.614Z,94072.00
2022-12-11T11:44:44.514Z,94068.00
2022-12-11T11:45:44.908Z,94070.00
2022-12-11T11:46:45.678Z,94072.00
2022-12-11T11:47:44.607Z,94072.00
2022-12-11T11:48:44.880Z,94072.00
2022-12-11T11:49:44.356Z,94074.00
2022-12-11T11:50:44.566Z,94074.00
2022-12-11T11:51:44.199Z,94074.00
2022-12-11T11:52:43.479Z,94074.00
2022-12-11T11:53:43.331Z,94074.00
2022-12-11T11:54:43.242Z,94072.00
2022-12-11T11:55:43.068Z,94072.00
2022-12-11T11:56:42.939Z,94074.00
2022-12-11T11:57:42.795Z,94076.00
2022-12-11T11:58:42.714Z,94078.00
2022-12-11T11:59:42.562Z,94076.00
2022-12-11T12:00:42.466Z,94079.00
2022-12-11T12:01:42.280Z,94079.00
2022-12-11T12:02:42.248Z,94081.00
2022-12-11T12:03:42.030Z,94079.00
2022-12-11T12:04:41.927Z,94078.00
2022-12-11T12:05:41.776Z,94076.00
2022-12-11T12:06:46.024Z,94078.00
2022-12-11T12:07:42.572Z,94074.00
2022-12-11T12:08:41.421Z,94076.00
2022-12-11T12:09:41.319Z,94072.00
2022-12-11T12:10:41.146Z,94074.00
2022-12-11T12:11:41.036Z,94072.00
2022-12-11T12:12:40.927Z,94074.00
2022-12-11T12:13:52.719Z,94074.00
2022-12-11T12:14:52.152Z,94076.00
2022-12-11T12:15:41.531Z,94072.00
2022-12-11T12:16:55.887Z,94070.00
2022-12-11T12:17:41.340Z,94072.00
2022-12-11T12:18:40.170Z,94070.00
2022-12-11T12:19:40.044Z,94068.00
2022-12-11T12:20:39.915Z,94070.00
2022-12-11T12:21:39.802Z,94072.00
2022-12-11T12:22:39.660Z,94070.00
2022-12-11T12:23:39.562Z,94068.00
2022-12-11T12:24:39.430Z,94068.00
2022-12-11T12:25:39.324Z,94072.00
2022-12-11T12:26:39.158Z,94072.00
2022-12-11T12:27:54.524Z,94070.00
2022-12-11T12:28:39.985Z,94070.00
2022-12-11T12:29:38.801Z,94070.00
2022-12-11T12:30:38.704Z,94068.00
2022-12-11T12:31:38.629Z,94070.00
2022-12-11T12:32:38.492Z,94066.00
2022-12-11T12:33:38.339Z,94064.00
2022-12-11T12:34:38.229Z,94064.00
2022-12-11T12:35:38.077Z,94062.00
2022-12-11T12:36:38.016Z,94062.00
2022-12-11T12:37:37.918Z,94062.00
2022-12-11T12:38:37.740Z,94062.00
2022-12-11T12:39:37.620Z,94066.00
2022-12-11T12:40:37.520Z,94062.00
2022-12-11T12:41:37.355Z,94064.00
2022-12-11T12:42:37.278Z,94068.00
2022-12-11T12:43:37.170Z,94068.00
2022-12-11T12:44:37.105Z,94066.00
2022-12-11T12:45:36.987Z,94064.00
2022-12-11T12:46:36.876Z,94068.00
2022-12-11T12:47:36.652Z,94066.00
2022-12-11T12:48:36.567Z,94064.00
2022-12-11T12:49:36.434Z,94062.00
2022-12-11T12:50:36.358Z,94062.00
2022-12-11T12:51:36.167Z,94064.00
2022-12-11T12:52:36.472Z,94060.00
2022-12-11T12:53:35.996Z,94062.00
2022-12-11T12:54:35.876Z,94062.00
2022-12-11T12:55:35.699Z,94064.00
2022-12-11T12:56:35.790Z,94058.00
2022-12-11T12:57:36.214Z,94062.00
2022-12-11T12:58:35.431Z,94064.00
2022-12-11T12:59:35.256Z,94062.00
2022-12-11T13:00:35.171Z,94060.00
2022-12-11T13:01:35.691Z,94060.00
2022-12-11T13:02:34.957Z,94062.00
2022-12-11T13:03:34.759Z,94058.00
2022-12-11T13:04:54.892Z,94058.00
2022-12-11T13:05:35.533Z,94056.00
2022-12-11T13:06:34.441Z,94056.00
2022-12-11T13:07:34.304Z,94054.00
2022-12-11T13:08:34.299Z,94054.00
2022-12-11T13:09:34.040Z,94054.00
2022-12-11T13:10:34.014Z,94052.00
2022-12-11T13:11:33.812Z,94052.00
2022-12-11T13:12:33.666Z,94054.00
2022-12-11T13:13:33.563Z,94056.00
2022-12-11T13:14:33.445Z,94062.00
2022-12-11T13:15:33.380Z,94060.00
2022-12-11T13:16:33.251Z,94058.00
2022-12-11T13:17:33.116Z,94058.00
2022-12-11T13:18:32.951Z,94058.00
2022-12-11T13:19:36.460Z,94054.00
2022-12-11T13:20:33.806Z,94056.00
2022-12-11T13:21:32.591Z,94056.00
2022-12-11T13:22:32.506Z,94054.00
2022-12-11T13:23:32.350Z,94054.00
2022-12-11T13:24:32.309Z,94054.00
2022-12-11T13:25:32.116Z,94054.00
2022-12-11T13:26:32.036Z,94052.00
2022-12-11T13:27:31.869Z,94054.00
2022-12-11T13:28:31.915Z,94054.00
2022-12-11T13:29:31.664Z,94056.00
2022-12-11T13:30:31.569Z,94056.00
2022-12-11T13:31:31.440Z,94060.00
2022-12-11T13:32:31.362Z,94058.00
2022-12-11T13:33:31.166Z,94056.00
2022-12-11T13:34:31.087Z,94054.00
2022-12-11T13:35:30.940Z,94052.00
2022-12-11T13:36:31.122Z,94050.00
2022-12-11T13:37:30.706Z,94050.00
2022-12-11T13:38:30.628Z,94048.00
2022-12-11T13:39:30.461Z,94048.00
2022-12-11T13:40:30.378Z,94044.00
2022-12-11T13:41:30.225Z,94048.00
2022-12-11T13:42:30.131Z,94046.00
2022-12-11T13:43:30.042Z,94046.00
2022-12-11T13:44:30.398Z,94036.00
2022-12-11T13:45:29.834Z,94034.00
2022-12-11T13:46:30.273Z,94030.00
2022-12-11T13:47:29.569Z,94030.00
2022-12-11T13:48:29.516Z,94028.00
2022-12-11T13:49:29.802Z,94028.00
2022-12-11T13:50:29.350Z,94032.00
2022-12-11T13:51:29.226Z,94032.00
2022-12-11T13:52:29.185Z,94034.00
2022-12-11T13:53:29.031Z,94034.00
2022-12-11T13:54:28.978Z,94034.00
2022-12-11T13:55:28.841Z,94034.00
2022-12-11T13:56:28.793Z,94034.00
2022-12-11T13:57:28.654Z,94036.00
2022-12-11T13:58:28.572Z,94038.00
2022-12-11T13:59:28.432Z,94036.00
2022-12-11T14:00:28.328Z,94040.00
2022-12-11T14:01:28.230Z,94036.00
2022-12-11T14:02:28.175Z,94038.00
2022-12-11T14:03:27.992Z,94036.00
2022-12-11T14:04:27.890Z,94040.00
2022-12-11T14:05:27.734Z,94038.00
2022-12-11T14:06:27.718Z,94042.00
2022-12-11T14:07:27.529Z,94042.00
2022-12-11T14:08:27.478Z,94044.00
2022-12-11T14:09:27.262Z,94042.00
2022-12-11T14:10:27.201Z,94042.00
2022-12-11T14:11:27.071Z,94044.00
2022-12-11T14:12:26.952Z,94044.00
2022-12-11T14:13:26.798Z,94048.00
2022-12-11T14:14:26.728Z,94046.00
2022-12-11T14:15:26.556Z,94046.00
2022-12-11T14:16:26.597Z,94048.00
2022-12-11T14:17:26.323Z,94048.00
2022-12-11T14:18:26.236Z,94048.00
2022-12-11T14:19:26.082Z,94052.00
2022-12-11T14:20:26.006Z,94050.00
2022-12-11T14:21:25.817Z,94054.00
2022-12-11T14:22:25.731Z,94050.00
2022-12-11T14:23:25.547Z,94052.00
2022-12-11T14:24:25.492Z,94052.00
2022-12-11T14:25:25.335Z,94052.00
2022-12-11T14:26:25.204Z,94050.00
2022-12-11T14:27:25.131Z,94052.00
2022-12-11T14:28:25.041Z,94050.00
2022-12-11T14:29:24.881Z,94052.00
2022-12-11T14:30:24.920Z,94050.00
2022-12-11T14:31:24.541Z,94054.00
2022-12-11T14:32:24.449Z,94052.00
2022-12-11T14:33:24.306Z,94052.00
2022-12-11T14:34:24.166Z,94056.00
2022-12-11T14:35:23.966Z,94056.00
2022-12-11T14:36:23.923Z,94058.00
2022-12-11T14:37:23.736Z,94056.00
2022-12-11T14:38:23.605Z,94054.00
2022-12-11T14:39:23.435Z,94052.00
2022-12-11T14:40:23.378Z,94054.00
2022-12-11T14:41:23.318Z,94052.00
2022-12-11T14:42:23.077Z,94052.00
2022-12-11T14:43:22.923Z,94058.00
2022-12-11T14:44:22.878Z,94056.00
2022-12-11T14:45:22.675Z,94054.00
2022-12-11T14:46:22.668Z,94056.00
2022-12-11T14:47:22.374Z,94060.00
2022-12-11T14:48:22.315Z,94064.00
2022-12-11T14:49:22.115Z,94064.00
2022-12-11T14:50:22.033Z,94066.00
2022-12-11T14:51:21.867Z,94066.00
2022-12-11T14:52:21.745Z,94068.00
2022-12-11T14:53:21.578Z,94068.00
2022-12-11T14:54:21.549Z,94070.00
2022-12-11T14:55:21.358Z,94072.00
2022-12-11T14:56:21.268Z,94074.00
2022-12-11T14:57:21.070Z,94074.00
2022-12-11T14:58:20.976Z,94074.00
2022-12-11T14:59:20.824Z,94074.00
2022-12-11T15:00:20.717Z,94078.00
2022-12-11T15:01:20.607Z,94072.00
2022-12-11T15:02:20.561Z,94076.00
2022-12-11T15:03:20.342Z,94074.00
2022-12-11T15:04:20.211Z,94076.00
2022-12-11T15:05:20.050Z,94076.00
2022-12-11T15:06:19.985Z,94078.00
2022-12-11T15:07:19.765Z,94078.00
2022-12-11T15:08:19.697Z,94078.00
2022-12-11T15:09:19.559Z,94078.00
2022-12-11T15:10:19.461Z,94079.00
2022-12-11T15:11:19.248Z,94078.00
2022-12-11T15:12:19.133Z,94079.00
2022-12-11T15:13:19.019Z,94079.00
2022-12-11T15:14:18.999Z,94083.00
2022-12-11T15:15:18.711Z,94081.00
2022-12-11T15:16:18.639Z,94081.00
2022-12-11T15:17:18.457Z,94085.00
2022-12-11T15:18:18.367Z,94087.00
2022-12-11T15:19:18.204Z,94087.00
2022-12-11T15:20:18.187Z,94087.00
2022-12-11T15:21:17.918Z,94087.00
2022-12-11T15:22:17.827Z,94085.00
2022-12-11T15:23:18.866Z,94085.00
2022-12-11T15:24:17.574Z,94085.00
2022-12-11T15:25:17.404Z,94087.00
2022-12-11T15:26:17.304Z,94087.00
2022-12-11T15:27:17.108Z,94087.00
2022-12-11T15:28:17.066Z,94089.00
2022-12-11T15:29:16.856Z,94089.00
2022-12-11T15:30:16.900Z,94089.00
2022-12-11T15:31:16.660Z,94093.00
2022-12-11T15:32:16.573Z,94093.00
2022-12-11T15:33:16.325Z,94095.00
2022-12-11T15:34:16.350Z,94093.00
2022-12-11T15:35:16.086Z,94095.00
2022-12-11T15:36:15.987Z,94097.00
2022-12-11T15:37:15.809Z,94097.00
2022-12-11T15:38:15.722Z,94097.00
2022-12-11T15:39:15.663Z,94101.00
2022-12-11T15:40:15.456Z,94103.00
2022-12-11T15:41:15.320Z,94101.00
2022-12-11T15:42:15.222Z,94103.00
2022-12-11T15:43:15.055Z,94105.00
2022-12-11T15:44:14.955Z,94105.00
2022-12-11T15:45:14.841Z,94105.00
2022-12-11T15:46:14.757Z,94105.00
2022-12-11T15:47:14.538Z,94105.00
2022-12-11T15:48:14.433Z,94105.00
2022-12-11T15:49:14.298Z,94107.00
2022-12-11T15:50:14.462Z,94107.00
2022-12-11T15:51:14.011Z,94105.00
2022-12-11T15:52:13.962Z,94109.00
2022-12-11T15:53:13.764Z,94107.00
2022-12-11T15:54:13.635Z,94107.00
2022-12-11T15:55:13.876Z,94105.00
2022-12-11T15:56:13.427Z,94107.00
2022-12-11T15:57:13.238Z,94109.00
2022-12-11T15:58:13.158Z,94109.00
2022-12-11T15:59:12.955Z,94117.00
2022-12-11T16:00:12.841Z,94119.00
2022-12-11T16:01:12.760Z,94121.00
2022-12-11T16:02:12.770Z,94119.00
2022-12-11T16:03:12.567Z,94124.00
2022-12-11T16:04:12.339Z,94124.00
2022-12-11T16:05:12.381Z,94124.00
2022-12-11T16:06:12.091Z,94123.00
2022-12-11T16:07:11.936Z,94124.00
2022-12-11T16:08:11.823Z,94124.00
2022-12-11T16:09:11.725Z,94124.00
2022-12-11T16:10:11.541Z,94126.00
2022-12-11T16:11:11.477Z,94128.00
2022-12-11T16:12:11.258Z,94126.00
2022-12-11T16:13:11.134Z,94128.00
2022-12-11T16:14:11.080Z,94126.00
2022-12-11T16:15:11.298Z,94126.00
2022-12-11T16:16:10.920Z,94128.00
2022-12-11T16:17:10.608Z,94132.00
2022-12-11T16:18:10.490Z,94132.00
2022-12-11T16:19:10.359Z,94128.00
2022-12-11T16:20:10.235Z,94130.00
2022-12-11T16:21:10.094Z,94130.00
2022-12-11T16:22:09.983Z,94130.00
2022-12-11T16:23:09.825Z,94130.00
2022-12-11T16:24:09.708Z,94130.00
2022-12-11T16:25:09.977Z,94130.00
2022-12-11T16:26:09.443Z,94132.00
2022-12-11T16:27:09.296Z,94132.00
2022-12-11T16:28:09.241Z,94134.00
2022-12-11T16:29:09.087Z,94134.00
2022-12-11T16:30:09.007Z,94136.00
2022-12-11T16:31:08.842Z,94136.00
2022-12-11T16:32:08.685Z,94136.00
2022-12-11T16:33:12.446Z,94140.00
2022-12-11T16:34:08.408Z,94138.00
2022-12-11T16:35:08.236Z,94138.00
2022-12-11T16:36:08.164Z,94144.00
2022-12-11T16:37:08.007Z,94140.00
2022-12-11T16:38:07.869Z,94138.00
2022-12-11T16:39:07.783Z,94140.00
2022-12-11T16:40:12.627Z,94140.00
2022-12-11T16:41:08.568Z,94138.00
2022-12-11T16:42:07.292Z,94138.00
2022-12-11T16:43:07.203Z,94138.00
2022-12-11T16:44:07.011Z,94140.00
2022-12-11T16:45:07.029Z,94140.00
2022-12-11T16:46:06.775Z,94142.00
2022-12-11T16:47:06.614Z,94144.00
2022-12-11T16:48:06.459Z,94146.00
2022-12-11T16:49:06.371Z,94146.00
2022-12-11T16:50:06.195Z,94148.00
2022-12-11T16:51:06.124Z,94150.00
2022-12-11T16:52:05.930Z,94150.00
2022-12-11T16:53:05.798Z,94150.00
2022-12-11T16:54:05.638Z,94150.00
2022-12-11T16:55:05.553Z,94150.00
2022-12-11T16:56:05.380Z,94152.00
2022-12-11T16:57:05.411Z,94154.00
2022-12-11T16:58:05.116Z,94156.00
2022-12-11T16:59:05.020Z,94154.00
2022-12-11T17:00:04.833Z,94154.00
2022-12-11T17:01:04.797Z,94152.00
2022-12-11T17:02:04.586Z,94154.00
2022-12-11T17:03:04.539Z,94154.00
2022-12-11T17:04:04.287Z,94154.00
2022-12-11T17:05:04.198Z,94154.00
2022-12-11T17:06:04.051Z,94154.00
2022-12-11T17:07:03.930Z,94156.00
2022-12-11T17:08:03.798Z,94158.00
2022-12-11T17:09:03.716Z,94158.00
2022-12-11T17:10:03.560Z,94158.00
2022-12-11T17:11:03.462Z,94160.00
2022-12-11T17:12:03.225Z,94162.00
2022-12-11T17:13:03.164Z,94164.00
2022-12-11T17:14:02.932Z,94164.00
2022-12-11T17:15:02.985Z,94164.00
2022-12-11T17:16:02.702Z,94168.00
2022-12-11T17:17:02.548Z,94170.00
2022-12-11T17:18:02.397Z,94168.00
2022-12-11T17:19:02.306Z,94168.00
2022-12-11T17:20:02.192Z,94171.00
2022-12-11T17:21:02.057Z,94173.00
2022-12-11T17:22:01.843Z,94173.00
2022-12-11T17:23:01.770Z,94173.00
2022-12-11T17:24:01.711Z,94173.00
2022-12-11T17:25:01.459Z,94177.00
2022-12-11T17:26:01.769Z,94175.00
2022-12-11T17:27:01.304Z,94175.00
2022-12-11T17:28:01.005Z,94177.00
2022-12-11T17:29:00.918Z,94175.00
2022-12-11T17:30:00.759Z,94175.00
2022-12-11T17:31:00.742Z,94175.00
2022-12-11T17:32:00.471Z,94173.00
2022-12-11T17:33:00.387Z,94173.00
2022-12-11T17:34:00.179Z,94175.00
2022-12-11T17:35:00.107Z,94177.00
2022-12-11T17:35:59.961Z,94173.00
2022-12-11T17:36:59.837Z,94175.00
2022-12-11T17:37:59.661Z,94173.00
2022-12-11T17:38:59.551Z,94177.00
2022-12-11T17:39:59.400Z,94177.00
2022-12-11T17:40:59.297Z,94175.00
2022-12-11T17:41:59.225Z,94173.00
2022-12-11T17:42:59.005Z,94175.00
2022-12-11T17:43:58.884Z,94175.00
2022-12-11T17:44:58.778Z,94175.00
2022-12-11T17:45:58.628Z,94175.00
2022-12-11T17:46:58.476Z,94175.00
2022-12-11T17:47:58.306Z,94177.00
2022-12-11T17:48:58.212Z,94177.00
2022-12-11T17:49:58.029Z,94181.00
2022-12-11T17:50:58.009Z,94181.00
2022-12-11T17:51:57.857Z,94181.00
2022-12-11T17:52:57.669Z,94179.00
2022-12-11T17:53:57.486Z,94181.00
2022-12-11T17:54:57.383Z,94183.00
2022-12-11T17:55:57.302Z,94181.00
2022-12-11T17:56:57.156Z,94185.00
2022-12-11T17:57:56.941Z,94185.00
2022-12-11T17:58:56.898Z,94185.00
2022-12-11T17:59:56.817Z,94187.00
2022-12-11T18:00:56.630Z,94187.00
2022-12-11T18:01:56.528Z,94185.00
2022-12-11T18:02:56.358Z,94185.00
2022-12-11T18:03:56.256Z,94191.00
2022-12-11T18:04:56.088Z,94187.00
2022-12-11T18:05:55.979Z,94191.00
2022-12-11T18:06:55.831Z,94193.00
2022-12-11T18:07:57.960Z,94197.00
2022-12-11T18:08:55.778Z,94193.00
2022-12-11T18:09:55.631Z,94197.00
2022-12-11T18:10:55.542Z,94193.00
2022-12-11T18:11:55.497Z,94187.00
2022-12-11T18:12:55.277Z,94191.00
2022-12-11T18:13:55.167Z,94191.00
2022-12-11T18:14:55.186Z,94189.00
2022-12-11T18:15:54.975Z,94189.00
2022-12-11T18:16:54.869Z,94187.00
2022-12-11T18:17:54.748Z,94191.00
2022-12-11T18:18:54.669Z,94195.00
2022-12-11T18:20:03.151Z,94193.00
2022-12-11T18:20:54.666Z,94193.00
2022-12-11T18:21:54.567Z,94191.00
2022-12-11T18:22:54.437Z,94195.00
2022-12-11T18:23:54.521Z,94191.00
2022-12-11T18:24:54.235Z,94193.00
2022-12-11T18:25:54.101Z,94193.00
2022-12-11T18:26:53.980Z,94195.00
2022-12-11T18:27:53.933Z,94195.00
2022-12-11T18:28:53.739Z,94193.00
2022-12-11T18:29:53.674Z,94195.00
2022-12-11T18:30:53.509Z,94195.00
2022-12-11T18:31:53.404Z,94199.00
2022-12-11T18:32:53.267Z,94199.00
2022-12-11T18:33:53.118Z,94195.00
2022-12-11T18:34:52.975Z,94195.00
2022-12-11T18:35:52.867Z,94195.00
2022-12-11T18:36:52.736Z,94195.00
2022-12-11T18:37:52.743Z,94197.00
2022-12-11T18:38:52.472Z,94199.00
2022-12-11T18:39:52.579Z,94201.00
2022-12-11T18:40:52.204Z,94203.00
2022-12-11T18:42:23.901Z,94205.00
2022-12-11T18:42:53.024Z,94205.00
2022-12-11T18:43:51.800Z,94207.00
2022-12-11T18:44:51.716Z,94207.00
2022-12-11T18:45:51.572Z,94205.00
2022-12-11T18:46:51.564Z,94205.00
2022-12-11T18:47:51.296Z,94211.00
2022-12-11T18:48:51.181Z,94209.00
2022-12-11T18:49:52.069Z,94211.00
2022-12-11T18:50:50.940Z,94209.00
2022-12-11T18:51:50.748Z,94209.00
2022-12-11T18:52:50.669Z,94213.00
2022-12-11T18:53:50.540Z,94213.00
